Time;durP1;ratioP1;P1;durP2;ratioP2;P2;SDS_P1;SDS_P2;PMS_P1;PMS_P2;Temp;Humidity;BMP_temperature;BMP_pressure;BME280_temperature;BME280_humidity;BME280_pressure;Samples;Min_cycle;Max_cycle;Signal;HPM_P1;HPM_P2
2023/03/05 00:02:22;;;;;;;5.78;2.22;;;3.10;84.30;;;;;;5054210;28;20033;-54
2023/03/05 00:04:47;;;;;;;3.10;2.17;;;3.10;85.30;;;;;;5070806;28;20466;-56
2023/03/05 00:07:13;;;;;;;6.40;2.40;;;3.10;85.00;;;;;;5082966;28;20503;-55
2023/03/05 00:09:39;;;;;;;5.07;2.95;;;3.10;86.70;;;;;;5070215;28;20085;-52
2023/03/05 00:12:05;;;;;;;4.97;2.88;;;3.10;85.90;;;;;;5075612;28;20024;-54
2023/03/05 00:14:30;;;;;;;3.53;2.25;;;3.10;85.60;;;;;;5089890;28;20561;-55
2023/03/05 00:16:56;;;;;;;8.25;2.45;;;3.10;86.20;;;;;;5069070;28;20034;-56
2023/03/05 00:19:21;;;;;;;6.05;2.83;;;3.10;85.40;;;;;;5089952;28;20698;-54
2023/03/05 00:21:47;;;;;;;4.68;2.20;;;3.10;85.40;;;;;;5068855;28;20588;-55
2023/03/05 00:24:17;;;;;;;4.75;2.30;;;3.10;86.00;;;;;;5089638;28;20122;-56
2023/03/05 00:26:44;;;;;;;5.03;2.53;;;3.10;85.70;;;;;;5068826;28;20028;-56
2023/03/05 00:29:14;;;;;;;4.20;2.13;;;3.10;85.20;;;;;;5089870;28;20035;-56
2023/03/05 00:31:40;;;;;;;5.13;2.50;;;3.10;84.90;;;;;;5075325;28;20020;-56
2023/03/05 00:34:12;;;;;;;7.85;3.22;;;3.10;84.90;;;;;;5070476;28;20024;-55
2023/03/05 00:36:47;;;;;;;6.60;2.70;;;3.10;85.50;;;;;;5068816;28;20029;-57
2023/03/05 00:39:14;;;;;;;7.75;2.92;;;3.10;84.70;;;;;;5048178;28;20064;-55
2023/03/05 00:41:40;;;;;;;6.50;2.72;;;3.10;85.40;;;;;;5085444;28;20040;-55
2023/03/05 00:44:06;;;;;;;8.02;2.70;;;3.10;85.20;;;;;;5068731;28;20494;-55
2023/03/05 00:46:31;;;;;;;8.70;2.78;;;3.20;86.10;;;;;;5071195;28;20029;-53
2023/03/05 00:48:57;;;;;;;6.25;3.08;;;3.20;85.80;;;;;;5048341;28;20036;-54
2023/03/05 00:51:24;;;;;;;10.20;2.65;;;3.20;90.80;;;;;;5066412;28;20082;-55
2023/03/05 00:53:49;;;;;;;11.15;3.13;;;3.20;92.50;;;;;;5069349;28;20025;-55
2023/03/05 00:56:15;;;;;;;11.85;2.70;;;3.30;93.20;;;;;;5086902;28;20078;-56
2023/03/05 00:58:41;;;;;;;8.50;3.47;;;3.20;94.20;;;;;;5089955;28;20499;-53
2023/03/05 01:01:07;;;;;;;8.38;2.20;;;3.30;96.60;;;;;;5067847;28;20021;-56
2023/03/05 01:03:33;;;;;;;15.27;3.38;;;3.30;97.00;;;;;;5067859;28;20056;-55
2023/03/05 01:06:00;;;;;;;7.60;2.60;;;3.40;99.90;;;;;;5076010;28;20427;-54
2023/03/05 01:08:26;;;;;;;9.43;2.65;;;3.40;99.80;;;;;;5075451;28;20066;-54
2023/03/05 01:10:51;;;;;;;11.73;2.83;;;3.40;99.90;;;;;;5069471;28;20037;-54
2023/03/05 01:13:17;;;;;;;16.88;3.17;;;3.40;99.90;;;;;;5073759;28;20016;-56
2023/03/05 01:15:43;;;;;;;8.27;2.15;;;3.40;99.90;;;;;;5088675;28;20111;-55
2023/03/05 01:18:08;;;;;;;10.35;2.47;;;3.40;99.90;;;;;;5055929;28;20408;-56
2023/03/05 01:20:35;;;;;;;6.90;2.60;;;3.40;99.90;;;;;;5068236;28;20120;-54
2023/03/05 01:23:00;;;;;;;7.60;2.25;;;3.40;99.90;;;;;;5086220;28;20043;-55
2023/03/05 01:25:26;;;;;;;9.23;3.22;;;3.40;99.90;;;;;;5069259;28;20033;-53
2023/03/05 01:27:52;;;;;;;7.78;2.55;;;3.40;99.90;;;;;;5086729;28;20031;-53
2023/03/05 01:30:18;;;;;;;8.90;2.50;;;3.40;99.90;;;;;;5069619;28;20085;-56
2023/03/05 01:32:43;;;;;;;14.20;3.67;;;3.40;99.90;;;;;;5069298;28;20032;-55
2023/03/05 01:35:16;;;;;;;8.35;2.60;;;3.40;99.90;;;;;;5067902;28;20028;-53
2023/03/05 01:37:41;;;;;;;12.85;3.13;;;3.40;99.90;;;;;;5051354;28;20582;-54
2023/03/05 01:40:08;;;;;;;6.10;2.50;;;3.30;99.90;;;;;;5048428;28;20033;-54
2023/03/05 01:42:34;;;;;;;7.72;2.70;;;3.30;99.90;;;;;;5085209;28;20036;-55
2023/03/05 01:45:04;;;;;;;10.35;2.78;;;3.40;99.90;;;;;;5088679;28;20365;-53
2023/03/05 01:47:29;;;;;;;6.07;2.60;;;3.40;99.90;;;;;;5066096;28;20033;-54
2023/03/05 01:49:55;;;;;;;10.02;2.92;;;3.40;99.90;;;;;;5068773;28;20119;-56
2023/03/05 01:52:22;;;;;;;10.35;2.70;;;3.40;99.90;;;;;;5088030;28;20567;-55
2023/03/05 01:54:58;;;;;;;6.18;1.73;;;3.40;99.90;;;;;;5047756;28;20111;-55
2023/03/05 01:57:34;;;;;;;6.60;1.90;;;3.40;99.90;;;;;;5068276;28;20052;-55
2023/03/05 02:00:06;;;;;;;6.30;1.52;;;3.40;99.90;;;;;;5068687;28;20056;-56
2023/03/05 02:02:32;;;;;;;10.52;1.88;;;3.40;99.90;;;;;;5046820;28;20032;-56
2023/03/05 02:05:08;;;;;;;13.32;2.75;;;3.40;99.50;;;;;;5067083;28;20599;-56
2023/03/05 02:07:36;;;;;;;11.85;2.17;;;3.30;98.40;;;;;;5086043;28;20044;-53
2023/03/05 02:10:22;;;;;;;13.68;2.08;;;3.30;97.10;;;;;;5088425;28;20050;-57
2023/03/05 02:12:48;;;;;;;15.85;2.70;;;3.30;96.70;;;;;;5087945;28;20036;-53
2023/03/05 02:15:15;;;;;;;13.82;2.08;;;3.20;95.50;;;;;;5088807;28;20028;-62
2023/03/05 02:17:41;;;;;;;13.20;2.53;;;3.20;95.00;;;;;;5088724;28;20074;-63
2023/03/05 02:20:11;;;;;;;8.27;2.03;;;3.20;94.50;;;;;;5088308;28;20039;-62
2023/03/05 02:22:36;;;;;;;7.28;2.47;;;3.20;93.50;;;;;;5088521;28;20059;-61
2023/03/05 02:25:15;;;;;;;3.92;1.63;;;3.10;93.00;;;;;;5088475;28;20051;-62
2023/03/05 02:27:44;;;;;;;7.78;2.08;;;3.10;92.70;;;;;;5088358;28;20073;-61
2023/03/05 02:30:11;;;;;;;6.07;1.30;;;3.10;92.50;;;;;;5088707;28;20020;-61
2023/03/05 02:32:36;;;;;;;9.07;1.65;;;3.00;92.10;;;;;;5088324;28;20121;-61
2023/03/05 02:35:02;;;;;;;6.95;1.50;;;3.00;92.00;;;;;;5091461;28;20112;-62
2023/03/05 02:37:27;;;;;;;7.47;1.48;;;2.90;90.40;;;;;;5092509;28;20028;-61
2023/03/05 02:39:53;;;;;;;15.27;1.65;;;2.90;89.30;;;;;;5092457;28;20447;-61
2023/03/05 02:42:18;;;;;;;7.63;1.48;;;2.80;88.20;;;;;;5092242;28;20028;-61
2023/03/05 02:44:44;;;;;;;11.70;1.77;;;2.80;88.40;;;;;;5092339;28;20036;-61
2023/03/05 02:47:09;;;;;;;5.78;1.70;;;2.80;87.30;;;;;;5092179;28;20032;-61
2023/03/05 02:49:35;;;;;;;6.95;1.70;;;2.70;86.50;;;;;;5091994;28;20031;-61
2023/03/05 02:52:00;;;;;;;8.50;1.65;;;2.60;86.10;;;;;;5092435;28;20016;-61
2023/03/05 02:54:26;;;;;;;3.17;1.08;;;2.60;85.10;;;;;;5091959;28;20028;-61
2023/03/05 02:56:51;;;;;;;6.55;1.40;;;2.60;82.20;;;;;;5092044;28;20097;-62
2023/03/05 02:59:17;;;;;;;3.88;1.20;;;2.50;82.10;;;;;;5092236;28;20035;-61
2023/03/05 03:01:42;;;;;;;7.47;1.38;;;2.50;82.40;;;;;;5091807;28;20028;-61
2023/03/05 03:04:08;;;;;;;4.35;1.40;;;2.40;81.40;;;;;;5091590;28;20115;-61
2023/03/05 03:06:33;;;;;;;5.90;1.30;;;2.40;80.60;;;;;;5092093;28;20024;-61
2023/03/05 03:08:59;;;;;;;5.45;1.30;;;2.30;81.10;;;;;;5091375;28;20040;-63
2023/03/05 03:11:25;;;;;;;5.65;1.52;;;2.30;81.30;;;;;;5091657;28;20024;-61
2023/03/05 03:13:50;;;;;;;5.30;1.52;;;2.20;80.90;;;;;;5089888;28;20039;-61
2023/03/05 03:16:17;;;;;;;4.70;1.48;;;2.20;79.70;;;;;;5071814;28;20028;-61
2023/03/05 03:18:46;;;;;;;5.40;1.17;;;2.20;79.60;;;;;;5083177;28;20078;-57
2023/03/05 03:21:20;;;;;;;10.13;1.25;;;2.30;78.50;;;;;;5091609;28;20046;-57
2023/03/05 03:23:46;;;;;;;4.97;1.63;;;2.30;78.60;;;;;;5063114;28;20488;-56
2023/03/05 03:26:11;;;;;;;6.05;0.90;;;2.30;78.60;;;;;;5071878;28;20035;-57
2023/03/05 03:28:36;;;;;;;5.28;1.10;;;2.30;79.20;;;;;;5088595;28;20081;-59
2023/03/05 03:31:02;;;;;;;9.63;1.45;;;2.40;77.60;;;;;;5091330;28;20061;-56
2023/03/05 03:33:27;;;;;;;3.85;1.27;;;2.40;77.80;;;;;;5069591;28;20507;-59
2023/03/05 03:35:53;;;;;;;4.97;1.80;;;2.30;77.70;;;;;;5070968;28;20434;-58
2023/03/05 03:38:18;;;;;;;5.90;1.00;;;2.30;77.50;;;;;;5088420;28;20031;-60
2023/03/05 03:40:44;;;;;;;4.93;1.27;;;2.40;77.60;;;;;;5091306;28;20036;-58
2023/03/05 03:43:09;;;;;;;5.85;1.00;;;2.40;77.60;;;;;;5069367;28;20602;-59
2023/03/05 03:45:39;;;;;;;4.10;1.05;;;2.40;77.90;;;;;;5070325;28;20013;-59
2023/03/05 03:48:05;;;;;;;4.03;1.20;;;2.40;77.70;;;;;;5089184;28;20051;-56
2023/03/05 03:50:30;;;;;;;4.55;1.35;;;2.40;77.60;;;;;;5090906;28;20024;-58
2023/03/05 03:52:56;;;;;;;7.70;1.63;;;2.40;77.50;;;;;;5069169;28;20044;-58
2023/03/05 03:55:21;;;;;;;3.63;1.00;;;2.40;77.30;;;;;;5070886;28;20447;-58
2023/03/05 03:57:47;;;;;;;7.05;1.10;;;2.40;76.70;;;;;;5089870;28;20044;-58
2023/03/05 04:00:13;;;;;;;3.88;1.10;;;2.40;76.80;;;;;;5049332;28;20043;-59
2023/03/05 04:02:38;;;;;;;5.18;1.20;;;2.40;77.80;;;;;;5070097;28;20393;-59
2023/03/05 04:05:04;;;;;;;10.75;1.30;;;2.40;77.30;;;;;;5069492;28;20037;-58
2023/03/05 04:07:30;;;;;;;4.85;1.00;;;2.40;76.70;;;;;;5085858;28;20044;-60
2023/03/05 04:09:55;;;;;;;4.93;1.95;;;2.50;77.40;;;;;;5051526;28;20037;-57
2023/03/05 04:12:20;;;;;;;8.02;2.33;;;2.50;77.10;;;;;;5069536;28;20110;-58
2023/03/05 04:14:47;;;;;;;3.60;1.10;;;2.40;77.10;;;;;;5071648;28;20050;-58
2023/03/05 04:17:14;;;;;;;5.72;1.40;;;2.50;76.70;;;;;;5089984;28;20066;-58
2023/03/05 04:19:41;;;;;;;3.47;0.98;;;2.50;76.00;;;;;;5047829;28;20572;-58
2023/03/05 04:22:10;;;;;;;5.47;1.50;;;2.50;76.10;;;;;;5086947;28;20040;-58
2023/03/05 04:24:36;;;;;;;4.82;1.20;;;2.40;76.00;;;;;;5069816;28;20031;-58
2023/03/05 04:27:02;;;;;;;6.43;1.20;;;2.50;75.60;;;;;;5087890;28;20020;-56
2023/03/05 04:29:27;;;;;;;5.35;1.25;;;2.50;75.40;;;;;;5070741;28;20039;-55
2023/03/05 04:31:52;;;;;;;7.20;1.92;;;2.50;75.80;;;;;;5087397;28;20153;-59
2023/03/05 04:34:18;;;;;;;4.97;1.45;;;2.50;76.40;;;;;;5090366;28;20024;-57
2023/03/05 04:36:44;;;;;;;4.70;1.30;;;2.50;77.10;;;;;;5068511;28;20024;-58
2023/03/05 04:39:09;;;;;;;3.90;1.40;;;2.50;77.80;;;;;;5069820;28;20051;-59
2023/03/05 04:41:35;;;;;;;7.75;1.50;;;2.50;78.40;;;;;;5087469;28;20024;-58
2023/03/05 04:44:00;;;;;;;4.70;1.20;;;2.50;79.10;;;;;;5090152;28;20028;-59
2023/03/05 04:46:26;;;;;;;4.70;1.40;;;2.50;79.90;;;;;;5068270;28;20045;-59
2023/03/05 04:48:52;;;;;;;9.07;1.23;;;2.50;81.10;;;;;;5070145;28;20431;-58
2023/03/05 04:51:18;;;;;;;8.77;1.48;;;2.50;82.10;;;;;;5087411;28;20089;-57
2023/03/05 04:53:43;;;;;;;7.35;1.60;;;2.50;82.50;;;;;;5089791;28;20027;-58
2023/03/05 04:56:09;;;;;;;6.18;1.35;;;2.40;83.60;;;;;;5067572;28;20594;-58
2023/03/05 04:58:34;;;;;;;4.63;1.30;;;2.40;84.10;;;;;;5069599;28;20587;-58
2023/03/05 05:01:02;;;;;;;4.25;1.20;;;2.50;84.20;;;;;;5088934;28;20064;-61
2023/03/05 05:03:27;;;;;;;6.45;1.38;;;2.50;84.70;;;;;;5048325;28;20071;-58
2023/03/05 05:05:55;;;;;;;7.93;1.70;;;2.50;85.80;;;;;;5068839;28;20036;-59
2023/03/05 05:08:21;;;;;;;5.35;1.65;;;2.50;86.30;;;;;;5078563;28;20046;-59
2023/03/05 05:11:01;;;;;;;6.88;1.27;;;2.40;86.70;;;;;;5069748;28;20552;-58
2023/03/05 05:13:28;;;;;;;3.70;1.02;;;2.40;87.10;;;;;;5067207;28;20041;-59
2023/03/05 05:15:54;;;;;;;5.07;1.30;;;2.40;88.10;;;;;;5088783;28;20020;-58
2023/03/05 05:18:20;;;;;;;9.30;1.48;;;2.40;88.90;;;;;;5049841;28;20025;-58
2023/03/05 05:20:45;;;;;;;5.45;1.08;;;2.40;89.10;;;;;;5066142;28;20033;-59
2023/03/05 05:23:11;;;;;;;6.95;2.17;;;2.40;88.90;;;;;;5069246;28;20171;-59
2023/03/05 05:25:37;;;;;;;2.05;1.02;;;2.40;89.30;;;;;;5071783;28;20028;-58
2023/03/05 05:28:03;;;;;;;5.38;1.73;;;2.40;90.10;;;;;;5070415;28;20481;-59
2023/03/05 05:30:29;;;;;;;7.95;1.75;;;2.40;90.20;;;;;;5088399;28;20110;-58
2023/03/05 05:32:54;;;;;;;5.88;1.45;;;2.40;90.00;;;;;;5051452;28;20163;-59
2023/03/05 05:35:20;;;;;;;4.15;1.20;;;2.40;90.10;;;;;;5068357;28;20060;-59
2023/03/05 05:37:45;;;;;;;9.23;2.63;;;2.40;90.20;;;;;;5072334;28;20104;-58
2023/03/05 05:40:11;;;;;;;5.22;1.52;;;2.40;90.40;;;;;;5088329;28;20024;-58
2023/03/05 05:42:37;;;;;;;2.40;1.00;;;2.40;90.30;;;;;;5055068;28;20071;-57
2023/03/05 05:45:02;;;;;;;8.82;1.52;;;2.40;90.20;;;;;;5067878;28;20050;-59
2023/03/05 05:47:28;;;;;;;5.95;1.33;;;2.40;90.40;;;;;;5074870;28;20123;-59
2023/03/05 05:49:55;;;;;;;7.32;1.02;;;2.40;90.40;;;;;;5088268;28;20522;-59
2023/03/05 05:52:21;;;;;;;3.63;1.10;;;2.40;90.20;;;;;;5066840;28;20082;-58
2023/03/05 05:54:47;;;;;;;6.93;1.45;;;2.40;90.60;;;;;;5088150;28;20028;-60
2023/03/05 05:57:12;;;;;;;2.53;1.05;;;2.40;90.50;;;;;;5067300;28;20028;-60
2023/03/05 05:59:38;;;;;;;7.38;1.05;;;2.40;90.60;;;;;;5088033;28;20090;-59
2023/03/05 06:02:06;;;;;;;8.77;2.08;;;2.40;90.80;;;;;;5067030;28;20024;-59
2023/03/05 06:04:32;;;;;;;2.65;1.15;;;2.40;90.80;;;;;;5087045;28;20032;-59
2023/03/05 06:06:58;;;;;;;6.97;1.23;;;2.40;90.70;;;;;;5065631;28;20453;-58
2023/03/05 06:09:24;;;;;;;2.90;1.33;;;2.50;90.80;;;;;;5068302;28;20249;-59
2023/03/05 06:11:50;;;;;;;4.82;1.10;;;2.40;91.20;;;;;;5053766;28;20553;-58
2023/03/05 06:14:15;;;;;;;4.32;1.30;;;2.50;90.70;;;;;;5064064;28;20021;-58
2023/03/05 06:16:41;;;;;;;7.07;1.58;;;2.50;90.90;;;;;;5065232;28;20063;-58
2023/03/05 06:19:10;;;;;;;7.25;1.23;;;2.50;91.00;;;;;;5069419;28;20024;-58
2023/03/05 06:21:35;;;;;;;3.28;1.13;;;2.50;91.10;;;;;;5065780;28;20082;-57
2023/03/05 06:24:01;;;;;;;4.35;1.40;;;2.50;90.70;;;;;;5074774;28;20036;-58
2023/03/05 06:26:26;;;;;;;9.23;1.20;;;2.50;90.90;;;;;;5046004;28;20040;-59
2023/03/05 06:28:53;;;;;;;9.05;1.90;;;2.50;90.70;;;;;;5077635;28;20074;-58
2023/03/05 06:31:21;;;;;;;4.00;1.05;;;2.60;90.40;;;;;;5052667;28;20020;-60
2023/03/05 06:33:48;;;;;;;5.00;1.00;;;2.60;90.40;;;;;;5072059;28;20067;-60
2023/03/05 06:36:17;;;;;;;5.30;1.08;;;2.60;90.50;;;;;;5064869;28;20024;-57
2023/03/05 06:38:42;;;;;;;4.85;1.27;;;2.60;90.30;;;;;;5085824;28;20028;-58
2023/03/05 06:41:11;;;;;;;10.35;1.52;;;2.70;90.30;;;;;;5058494;28;20060;-57
2023/03/05 06:43:39;;;;;;;6.82;1.30;;;2.70;90.00;;;;;;5084466;28;20487;-58
2023/03/05 06:46:07;;;;;;;6.22;1.40;;;2.80;89.70;;;;;;5066590;28;20089;-58
2023/03/05 06:48:33;;;;;;;2.03;1.10;;;2.90;89.60;;;;;;5085348;28;20031;-58
2023/03/05 06:50:58;;;;;;;4.70;1.20;;;2.90;89.20;;;;;;5062245;28;20590;-58
2023/03/05 06:53:25;;;;;;;6.90;1.10;;;3.00;88.70;;;;;;5084916;28;20841;-58
2023/03/05 06:55:51;;;;;;;3.50;1.00;;;3.00;88.30;;;;;;5063294;28;20029;-56
2023/03/05 06:58:17;;;;;;;3.28;1.00;;;3.10;88.20;;;;;;5085656;28;20036;-58
2023/03/05 07:00:43;;;;;;;6.05;1.50;;;3.30;87.50;;;;;;5050116;28;20041;-58
2023/03/05 07:03:09;;;;;;;5.53;1.23;;;3.30;85.80;;;;;;5077631;28;20119;-58
2023/03/05 07:05:38;;;;;;;3.13;1.08;;;3.40;85.80;;;;;;5059202;28;20056;-59
2023/03/05 07:08:03;;;;;;;3.08;1.20;;;3.50;85.80;;;;;;5074490;28;20082;-58
2023/03/05 07:10:29;;;;;;;5.80;1.40;;;3.60;85.20;;;;;;5055730;28;20084;-58
2023/03/05 07:12:55;;;;;;;7.35;1.30;;;3.70;83.60;;;;;;5084387;28;20043;-62
2023/03/05 07:15:21;;;;;;;9.77;1.63;;;3.80;83.00;;;;;;5059738;28;20457;-58
2023/03/05 07:17:46;;;;;;;3.63;1.00;;;3.80;82.60;;;;;;5084815;28;20130;-58
2023/03/05 07:20:12;;;;;;;6.82;1.02;;;3.90;81.70;;;;;;5062942;28;20733;-57
2023/03/05 07:22:38;;;;;;;4.40;1.50;;;3.90;81.20;;;;;;5069067;28;20033;-58
2023/03/05 07:25:05;;;;;;;4.97;1.55;;;3.90;79.80;;;;;;5064774;28;20039;-59
2023/03/05 07:27:34;;;;;;;4.20;1.20;;;3.90;79.70;;;;;;5061458;28;20033;-56
2023/03/05 07:29:59;;;;;;;9.80;1.45;;;3.80;78.60;;;;;;5069695;28;20021;-70
2023/03/05 07:32:25;;;;;;;3.90;1.20;;;3.80;79.20;;;;;;5067849;28;20048;-69
2023/03/05 07:34:50;;;;;;;5.75;1.50;;;3.80;78.60;;;;;;5086142;28;20399;-70
2023/03/05 07:37:16;;;;;;;6.18;1.20;;;4.00;80.00;;;;;;5089180;28;20092;-70
2023/03/05 07:39:41;;;;;;;3.22;1.00;;;4.10;77.30;;;;;;5068003;28;20480;-70
2023/03/05 07:42:07;;;;;;;3.85;1.50;;;4.20;77.90;;;;;;5078161;28;20150;-70
2023/03/05 07:44:32;;;;;;;8.48;2.20;;;4.20;74.40;;;;;;5086306;28;20047;-69
2023/03/05 07:46:58;;;;;;;4.57;1.45;;;4.20;74.10;;;;;;5079046;28;20561;-70
2023/03/05 07:49:23;;;;;;;5.00;1.27;;;4.30;73.20;;;;;;5085754;28;20051;-70
2023/03/05 07:51:49;;;;;;;3.13;1.13;;;4.30;72.00;;;;;;5069564;28;20032;-70
2023/03/05 07:54:14;;;;;;;9.75;2.15;;;4.50;70.90;;;;;;5088331;28;20032;-70
2023/03/05 07:56:40;;;;;;;2.33;1.10;;;4.60;71.70;;;;;;5067370;28;20060;-70
2023/03/05 07:59:09;;;;;;;4.78;1.42;;;4.70;70.90;;;;;;5088137;28;20020;-69
2023/03/05 08:01:35;;;;;;;2.22;1.00;;;4.90;70.40;;;;;;5052164;28;20147;-70
2023/03/05 08:04:02;;;;;;;4.75;1.70;;;5.00;68.10;;;;;;5066069;28;20072;-70
2023/03/05 08:06:28;;;;;;;4.20;1.20;;;5.30;67.70;;;;;;5062312;28;20545;-70
2023/03/05 08:08:53;;;;;;;17.13;1.58;;;5.60;66.20;;;;;;5067063;28;20045;-70
2023/03/05 08:11:19;;;;;;;6.25;1.38;;;5.80;66.40;;;;;;5058870;28;20115;-73
2023/03/05 08:13:45;;;;;;;4.18;1.77;;;5.90;62.90;;;;;;5069441;28;20033;-70
2023/03/05 08:16:17;;;;;;;2.00;1.15;;;5.90;62.70;;;;;;5067290;28;20020;-69
2023/03/05 08:18:43;;;;;;;4.15;1.50;;;5.80;62.00;;;;;;5072181;28;20028;-66
2023/03/05 08:21:17;;;;;;;1.95;1.30;;;5.70;60.30;;;;;;5070291;28;20032;-66
2023/03/05 08:23:43;;;;;;;5.65;1.70;;;5.70;59.10;;;;;;5081522;28;20037;-67
2023/03/05 08:26:13;;;;;;;3.47;1.10;;;5.70;60.90;;;;;;5066728;28;20373;-65
2023/03/05 08:28:38;;;;;;;5.07;1.40;;;5.70;60.40;;;;;;5068162;28;20631;-66
2023/03/05 08:31:11;;;;;;;3.55;1.20;;;5.80;60.50;;;;;;5068352;28;20068;-67
2023/03/05 08:33:37;;;;;;;4.85;1.17;;;5.80;61.10;;;;;;5069139;28;20496;-66
2023/03/05 08:36:03;;;;;;;9.20;1.80;;;5.90;58.20;;;;;;5073295;28;20024;-67
2023/03/05 08:38:29;;;;;;;7.32;1.60;;;5.90;57.20;;;;;;5086565;28;20077;-66
2023/03/05 08:40:54;;;;;;;5.50;1.52;;;5.70;56.30;;;;;;5069261;28;20036;-68
2023/03/05 08:43:20;;;;;;;3.67;1.30;;;5.80;55.80;;;;;;5066595;28;20029;-67
2023/03/05 08:45:46;;;;;;;6.28;1.75;;;5.90;56.90;;;;;;5088283;28;20484;-66
2023/03/05 08:48:12;;;;;;;7.47;1.30;;;6.00;56.50;;;;;;5050456;28;20116;-66
2023/03/05 08:50:37;;;;;;;3.80;1.20;;;6.40;55.90;;;;;;5066571;28;20167;-67
2023/03/05 08:53:03;;;;;;;4.20;1.20;;;6.60;53.00;;;;;;5069981;28;20039;-67
2023/03/05 08:55:28;;;;;;;5.15;1.48;;;6.90;54.00;;;;;;5068364;28;20059;-67
2023/03/05 08:57:54;;;;;;;3.08;1.40;;;7.00;47.50;;;;;;5063472;28;20510;-66
2023/03/05 09:00:20;;;;;;;4.72;1.58;;;7.20;47.20;;;;;;5068432;28;20024;-66
2023/03/05 09:02:45;;;;;;;2.90;1.42;;;7.30;44.00;;;;;;5072210;28;20036;-67
2023/03/05 09:05:11;;;;;;;4.88;1.40;;;7.40;48.20;;;;;;5087474;28;20031;-67
2023/03/05 09:07:36;;;;;;;6.10;1.30;;;7.50;50.00;;;;;;5063014;28;20040;-67
2023/03/05 09:10:03;;;;;;;3.63;1.33;;;7.60;36.40;;;;;;5089074;28;20031;-67
2023/03/05 09:12:29;;;;;;;3.78;1.30;;;7.60;42.90;;;;;;5055516;28;20037;-67
2023/03/05 09:14:55;;;;;;;3.83;1.13;;;7.50;44.00;;;;;;5067279;28;20098;-61
2023/03/05 09:17:21;;;;;;;4.57;1.20;;;7.30;43.10;;;;;;5081024;28;20564;-59
2023/03/05 09:19:46;;;;;;;2.75;1.10;;;7.30;40.80;;;;;;5068820;28;20059;-59
2023/03/05 09:22:12;;;;;;;5.43;1.30;;;7.30;43.90;;;;;;5085514;28;20040;-59
2023/03/05 09:24:37;;;;;;;5.22;1.30;;;7.20;38.80;;;;;;5068629;28;20522;-58
2023/03/05 09:27:03;;;;;;;1.70;1.00;;;6.90;37.80;;;;;;5083947;28;20055;-59
2023/03/05 09:29:30;;;;;;;5.20;1.10;;;6.90;41.20;;;;;;5067148;28;20044;-60
2023/03/05 09:31:55;;;;;;;3.42;1.02;;;6.80;42.90;;;;;;5085742;28;20098;-60
2023/03/05 09:34:22;;;;;;;3.20;1.00;;;6.70;42.80;;;;;;5088406;28;20515;-60
2023/03/05 09:36:48;;;;;;;4.30;1.63;;;6.50;41.80;;;;;;5066130;28;20085;-60
2023/03/05 09:39:15;;;;;;;2.97;0.88;;;6.50;41.00;;;;;;5067600;28;20032;-60
2023/03/05 09:42:05;;;;;;;5.22;1.70;;;6.50;37.20;;;;;;5085382;28;20570;-59
2023/03/05 09:44:42;;;;;;;5.07;1.45;;;6.30;38.40;;;;;;5068562;28;20041;-60
2023/03/05 09:47:38;;;;;;;6.72;1.65;;;6.10;38.80;;;;;;5062719;28;20506;-60
2023/03/05 09:50:20;;;;;;;4.53;1.58;;;5.90;38.40;;;;;;5047898;28;20025;-60
2023/03/05 09:52:54;;;;;;;3.08;1.15;;;5.80;41.70;;;;;;5059567;28;20029;-59
2023/03/05 09:55:26;;;;;;;5.78;1.33;;;5.70;43.80;;;;;;5047594;28;20028;-59
2023/03/05 09:57:56;;;;;;;1.67;1.00;;;5.50;44.50;;;;;;5060726;28;20108;-59
2023/03/05 10:00:34;;;;;;;2.97;0.90;;;5.40;46.60;;;;;;5087845;28;20051;-59
2023/03/05 10:03:05;;;;;;;6.15;1.35;;;5.50;47.00;;;;;;5061439;28;20597;-59
2023/03/05 10:05:49;;;;;;;4.15;1.10;;;5.40;46.30;;;;;;5056594;28;20573;-59
2023/03/05 10:08:19;;;;;;;5.70;1.60;;;5.30;47.00;;;;;;5072739;28;20040;-58
2023/03/05 10:10:51;;;;;;;4.40;1.27;;;5.20;50.10;;;;;;5062633;28;20032;-59
2023/03/05 10:13:25;;;;;;;10.18;1.73;;;5.20;51.90;;;;;;5063617;28;20550;-58
2023/03/05 10:16:19;;;;;;;6.22;1.45;;;5.20;52.70;;;;;;5087515;28;20040;-59
2023/03/05 10:19:10;;;;;;;2.65;0.93;;;5.20;52.60;;;;;;5047453;28;20116;-59
2023/03/05 10:22:10;;;;;;;5.32;1.70;;;5.10;51.40;;;;;;5053532;28;20021;-59
2023/03/05 10:24:56;;;;;;;3.95;1.60;;;5.10;52.20;;;;;;5069883;28;20145;-60
2023/03/05 10:27:32;;;;;;;3.05;1.60;;;5.20;53.70;;;;;;5057668;28;20037;-58
2023/03/05 10:30:22;;;;;;;3.17;1.65;;;5.20;53.10;;;;;;5058026;28;20485;-58
2023/03/05 10:33:25;;;;;;;4.90;1.33;;;5.20;52.60;;;;;;5068604;28;20518;-59
2023/03/05 10:36:19;;;;;;;4.55;1.83;;;5.20;52.60;;;;;;5073743;28;20032;-59
2023/03/05 10:39:17;;;;;;;3.88;1.33;;;5.20;52.80;;;;;;5064299;28;20063;-59
2023/03/05 10:41:54;;;;;;;1.55;1.13;;;5.20;52.50;;;;;;5074851;28;20062;-59
2023/03/05 10:44:38;;;;;;;1.90;1.13;;;5.10;53.70;;;;;;5074530;28;20036;-60
2023/03/05 10:47:15;;;;;;;3.70;1.45;;;5.00;54.20;;;;;;5046808;28;20037;-59
2023/03/05 10:49:50;;;;;;;4.63;1.75;;;5.00;55.00;;;;;;5056623;28;20032;-61
2023/03/05 10:52:45;;;;;;;5.95;1.58;;;4.90;56.00;;;;;;5066943;28;20032;-60
2023/03/05 10:55:17;;;;;;;3.63;1.45;;;4.80;56.50;;;;;;5065370;28;20031;-60
2023/03/05 10:57:43;;;;;;;4.65;1.55;;;4.90;58.50;;;;;;5069860;28;20024;-58
2023/03/05 11:00:24;;;;;;;6.50;1.73;;;4.90;59.10;;;;;;5089125;28;20085;-60
2023/03/05 11:02:55;;;;;;;3.47;0.90;;;5.10;58.00;;;;;;5071577;28;20122;-60
2023/03/05 11:05:49;;;;;;;4.50;2.20;;;5.20;58.20;;;;;;5088514;28;20519;-60
2023/03/05 11:08:25;;;;;;;5.57;1.55;;;5.50;56.70;;;;;;5069643;28;20040;-60
2023/03/05 11:11:10;;;;;;;4.22;1.83;;;5.70;55.20;;;;;;5055150;28;20440;-59
2023/03/05 11:13:51;;;;;;;5.72;1.60;;;5.80;53.90;;;;;;5070931;28;20043;-60
2023/03/05 11:16:30;;;;;;;4.07;1.70;;;5.90;53.30;;;;;;5066596;28;20029;-60
2023/03/05 11:19:14;;;;;;;8.25;1.55;;;6.10;51.60;;;;;;5091185;28;20024;-61
2023/03/05 11:21:40;;;;;;;4.22;1.55;;;6.20;52.40;;;;;;5091522;28;20182;-62
2023/03/05 11:24:15;;;;;;;7.43;2.42;;;6.30;52.60;;;;;;5069512;28;20063;-61
2023/03/05 11:26:49;;;;;;;6.60;2.47;;;6.30;46.50;;;;;;5071161;28;20021;-60
2023/03/05 11:29:18;;;;;;;6.15;2.15;;;6.20;46.20;;;;;;5089174;28;20266;-60
2023/03/05 11:31:43;;;;;;;8.02;2.05;;;6.20;45.20;;;;;;5091038;28;20019;-60
2023/03/05 11:34:18;;;;;;;3.03;1.40;;;6.20;42.40;;;;;;5069776;28;20032;-59
2023/03/05 11:36:51;;;;;;;3.88;1.58;;;6.20;43.40;;;;;;5070554;28;20455;-60
2023/03/05 11:39:21;;;;;;;2.90;1.80;;;6.10;38.30;;;;;;5088916;28;20028;-58
2023/03/05 11:42:00;;;;;;;1.98;1.17;;;6.00;38.80;;;;;;5091044;28;20020;-59
2023/03/05 11:44:32;;;;;;;5.63;1.38;;;6.00;39.00;;;;;;5054602;28;20020;-60
2023/03/05 11:47:27;;;;;;;1.40;1.17;;;6.10;38.10;;;;;;5091184;28;20500;-60
2023/03/05 11:50:14;;;;;;;2.78;1.30;;;6.00;39.90;;;;;;5061084;28;20024;-60
2023/03/05 11:53:12;;;;;;;4.20;1.25;;;6.10;38.80;;;;;;5071126;28;20055;-60
2023/03/05 11:56:06;;;;;;;6.15;1.65;;;6.10;39.90;;;;;;5074036;28;20037;-60
2023/03/05 11:58:38;;;;;;;3.95;1.20;;;6.20;40.30;;;;;;5070500;28;20103;-60
2023/03/05 12:01:16;;;;;;;3.20;1.48;;;6.10;41.50;;;;;;5063662;28;20031;-60
2023/03/05 12:03:42;;;;;;;6.70;1.65;;;6.20;43.60;;;;;;5050267;28;20077;-60
2023/03/05 12:06:26;;;;;;;7.65;1.70;;;6.20;42.90;;;;;;5069998;28;20085;-60
2023/03/05 12:08:55;;;;;;;3.65;1.75;;;6.30;40.90;;;;;;5050178;28;20049;-60
2023/03/05 12:11:30;;;;;;;5.93;1.95;;;6.40;40.00;;;;;;5067669;28;20032;-59
2023/03/05 12:14:28;;;;;;;5.70;1.60;;;6.40;31.60;;;;;;5090064;28;20052;-59
2023/03/05 12:17:12;;;;;;;2.58;1.25;;;6.50;32.80;;;;;;5090416;28;20115;-59
2023/03/05 12:19:45;;;;;;;8.15;2.22;;;6.50;29.50;;;;;;5057778;28;20024;-60
2023/03/05 12:22:20;;;;;;;2.22;1.33;;;6.60;30.00;;;;;;5090381;28;20024;-59
2023/03/05 12:24:47;;;;;;;6.47;1.98;;;6.60;31.50;;;;;;5067904;28;20056;-60
2023/03/05 12:27:15;;;;;;;4.68;1.55;;;6.70;29.10;;;;;;5068518;28;20377;-60
2023/03/05 12:29:50;;;;;;;3.63;1.58;;;6.80;30.50;;;;;;5087644;28;20059;-60
2023/03/05 12:32:21;;;;;;;5.18;1.55;;;6.70;27.30;;;;;;5090206;28;20051;-60
2023/03/05 12:34:49;;;;;;;6.47;1.60;;;6.70;29.20;;;;;;5089800;28;20085;-60
2023/03/05 12:37:20;;;;;;;4.68;1.38;;;6.60;29.70;;;;;;5052356;28;20060;-60
2023/03/05 12:39:51;;;;;;;5.80;1.77;;;6.60;29.20;;;;;;5067395;28;20123;-59
2023/03/05 12:42:29;;;;;;;5.13;1.52;;;6.50;29.90;;;;;;5057329;28;20336;-60
2023/03/05 12:45:14;;;;;;;4.38;1.38;;;6.50;28.30;;;;;;5072037;28;20028;-60
2023/03/05 12:47:44;;;;;;;4.93;1.07;;;6.40;26.30;;;;;;5064914;28;20028;-60
2023/03/05 12:50:25;;;;;;;4.43;1.45;;;6.20;26.30;;;;;;5070617;28;20283;-60
2023/03/05 12:53:10;;;;;;;4.72;1.80;;;6.00;27.60;;;;;;5052978;28;20021;-60
2023/03/05 12:55:55;;;;;;;5.25;1.55;;;5.80;29.30;;;;;;5049213;28;20048;-60
2023/03/05 12:58:39;;;;;;;4.30;1.95;;;5.80;28.60;;;;;;5072245;28;20618;-58
2023/03/05 13:01:10;;;;;;;3.28;1.50;;;5.60;27.90;;;;;;5049411;28;20052;-60
2023/03/05 13:03:53;;;;;;;5.15;1.60;;;5.40;29.90;;;;;;5085985;28;20020;-60
2023/03/05 13:06:38;;;;;;;5.57;1.52;;;5.40;28.60;;;;;;5076257;28;20130;-60
2023/03/05 13:09:24;;;;;;;2.55;1.30;;;5.40;29.20;;;;;;5088852;28;20073;-59